This is the latest recevied weather packets stored in our database for station/object KG0HG. If no packets are shown the sender has not sent any weather packets the latest 1 day(s).
| Time | Temp. | Humidity | Pressure | Rain* | Wind** | Luminosity | Snow |
|---|---|---|---|---|---|---|---|
| 1778093639 | 13.89° C | 36% | 1019 hPa | 0 mm | - | 740 W/m² | - |
| 1778092730 | 12.78° C | 35% | 1019.2 hPa | 0 mm | - | 476 W/m² | - |
| 1778092425 | 13.33° C | 36% | 1019.2 hPa | 0 mm | - | 435 W/m² | - |
| 1778090912 | 12.78° C | 36% | 1019.3 hPa | 0 mm | - | 148 W/m² | - |
| 1778089093 | 12.78° C | 39% | 1019.5 hPa | 0 mm | - | 142 W/m² | - |
| 1778088790 | 12.78° C | 38% | 1019.4 hPa | 0 mm | - | 158 W/m² | - |
| 1778087578 | 12.78° C | 37% | 1019.3 hPa | 0 mm | - | 182 W/m² | - |
| 1778086064 | 12.22° C | 37% | 1019.5 hPa | 0 mm | - | 133 W/m² | - |
| 1778085761 | 12.78° C | 39% | 1019.5 hPa | 0 mm | - | 158 W/m² | - |
| 1778085458 | 12.78° C | 40% | 1019.2 hPa | 0 mm | - | 156 W/m² | - |
| 1778084849 | 12.78° C | 42% | 1019.2 hPa | 0 mm | - | 137 W/m² | - |
| 1778084547 | 12.78° C | 39% | 1019.3 hPa | 0 mm | - | 139 W/m² | - |
| 1778084244 | 12.22° C | 41% | 1019.3 hPa | 0 mm | - | 141 W/m² | - |
| 1778083335 | 12.78° C | 40% | 1019.1 hPa | 0 mm | - | 122 W/m² | - |
| 1778081598 | 12.22° C | 43% | 1018.9 hPa | 0 mm | - | 32 W/m² | - |
| 1778080691 | 12.22° C | 46% | 1018.8 hPa | 0 mm | - | 29 W/m² | - |
| 1778080084 | 11.67° C | 47% | 1019 hPa | 0 mm | - | 29 W/m² | - |
| 1778079781 | 11.67° C | 47% | 1019.1 hPa | 0 mm | - | 29 W/m² | - |
| 1778079478 | 11.67° C | 49% | 1018.8 hPa | 0 mm | - | 38 W/m² | - |
| 1778078872 | 11.67° C | 51% | 1019 hPa | 0 mm | - | 30 W/m² | - |
| 1778077662 | 11.11° C | 57% | 1018.7 hPa | 0 mm | - | 58 W/m² | - |
| 1778075240 | 10° C | 68% | 1018.1 hPa | 0 mm | - | 40 W/m² | - |
| 1778074936 | 10° C | 68% | 1018.4 hPa | 0 mm | - | 32 W/m² | - |
| 1778074027 | 9.44° C | 76% | 1018 hPa | 0 mm | - | 21 W/m² | - |
| 1778071605 | 8.33° C | 93% | 1017.7 hPa | 0 mm | - | 24 W/m² | - |
* Rain latest hour (hover to see other rain measurements)
** Current wind speed in m/s (hover to see current wind gust speed)